Time;durP1;ratioP1;P1;durP2;ratioP2;P2;SDS_P1;SDS_P2;PMS_P1;PMS_P2;Temp;Humidity;BMP_temperature;BMP_pressure;BME280_temperature;BME280_humidity;BME280_pressure;Samples;Min_cycle;Max_cycle;Signal;HPM_P1;HPM_P2
2023/05/21 00:00:41;;;;;;;79.43;75.30;;;;;;;22.57;39.90;101734.44;5012894;28;20037;-68
2023/05/21 00:03:12;;;;;;;79.47;75.78;;;;;;;22.55;39.92;101738.59;5004530;28;20040;-68
2023/05/21 00:05:40;;;;;;;78.78;75.18;;;;;;;22.51;39.54;101735.63;5008805;28;20033;-68
2023/05/21 00:08:06;;;;;;;79.25;75.05;;;;;;;22.47;40.07;101740.91;5012014;28;20034;-68
2023/05/21 00:10:31;;;;;;;79.78;75.97;;;;;;;22.45;39.50;101736.81;5012263;28;20393;-68
2023/05/21 00:12:57;;;;;;;79.97;76.13;;;;;;;22.42;39.58;101741.00;5006070;28;20051;-68
2023/05/21 00:15:22;;;;;;;80.28;76.43;;;;;;;22.40;39.53;101736.91;4996538;28;20129;-68
2023/05/21 00:17:47;;;;;;;78.35;74.55;;;;;;;22.36;39.76;101733.94;5031659;28;20094;-68
2023/05/21 00:20:13;;;;;;;79.65;75.65;;;;;;;22.33;40.01;101731.78;5011065;28;20052;-68
2023/05/21 00:22:40;;;;;;;77.28;73.47;;;;;;;22.31;40.09;101727.69;4996806;28;20456;-67
2023/05/21 00:25:07;;;;;;;76.30;72.70;;;;;;;22.28;40.12;101731.88;4993070;28;20551;-67
2023/05/21 00:27:32;;;;;;;78.28;74.38;;;;;;;22.25;39.93;101727.78;5000838;28;20046;-67
2023/05/21 00:29:58;;;;;;;78.28;74.43;;;;;;;22.22;40.26;101727.53;4993098;28;20040;-67
2023/05/21 00:32:23;;;;;;;79.45;75.75;;;;;;;22.20;40.23;101727.00;4991619;28;20372;-67
2023/05/21 00:34:49;;;;;;;77.57;74.00;;;;;;;22.17;40.22;101727.56;5002446;28;20050;-68
2023/05/21 00:37:15;;;;;;;79.43;75.68;;;;;;;22.13;39.71;101719.09;5002585;28;20081;-67
2023/05/21 00:39:40;;;;;;;75.30;71.85;;;;;;;22.11;40.01;101728.78;5005921;28;20038;-68
2023/05/21 00:42:06;;;;;;;79.25;75.53;;;;;;;22.08;40.09;101715.63;5007801;28;20038;-68
2023/05/21 00:44:34;;;;;;;80.00;76.20;;;;;;;22.04;40.43;101718.94;5012329;28;20026;-67
2023/05/21 00:47:01;;;;;;;77.32;73.57;;;;;;;22.02;40.16;101710.19;5021824;28;20038;-67
2023/05/21 00:49:27;;;;;;;76.45;72.95;;;;;;;21.98;39.83;101717.38;4995769;28;20042;-67
2023/05/21 00:51:53;;;;;;;78.28;74.57;;;;;;;21.96;40.20;101716.03;4992277;28;20109;-69
2023/05/21 00:54:20;;;;;;;79.05;75.35;;;;;;;21.92;40.00;101718.56;5007881;28;20034;-68
2023/05/21 00:56:46;;;;;;;76.28;72.07;;;;;;;21.90;40.28;101718.06;5016473;28;20152;-68
2023/05/21 00:59:14;;;;;;;77.53;73.72;;;;;;;21.87;40.52;101718.63;5015043;28;20049;-68
2023/05/21 01:01:42;;;;;;;75.25;71.68;;;;;;;21.85;40.49;101722.78;4994972;28;20038;-68
2023/05/21 01:04:07;;;;;;;75.13;71.53;;;;;;;21.81;40.03;101719.81;4994992;28;20101;-68
2023/05/21 01:06:33;;;;;;;75.47;71.43;;;;;;;21.77;40.21;101716.84;4992638;28;20086;-68
2023/05/21 01:09:00;;;;;;;73.28;69.78;;;;;;;21.76;40.26;101717.13;4992281;28;20038;-69
2023/05/21 01:11:38;;;;;;;76.18;72.57;;;;;;;21.73;40.70;101714.97;5014013;28;20278;-69
2023/05/21 01:14:06;;;;;;;70.53;66.93;;;;;;;21.70;40.21;101715.56;5013316;28;20046;-68
2023/05/21 01:16:32;;;;;;;;;;;;;;;21.68;40.63;101720.53;4991990;28;20134;-68
2023/05/21 01:18:58;;;;;;;69.40;66.15;;;;;;;21.63;40.35;101713.16;4992573;28;19949;-68
2023/05/21 01:21:24;;;;;;;70.13;66.53;;;;;;;21.60;40.52;101711.81;4991687;28;20035;-68
2023/05/21 01:23:50;;;;;;;68.65;65.38;;;;;;;21.58;40.21;101714.03;5018169;28;20034;-68
2023/05/21 01:26:15;;;;;;;70.95;67.45;;;;;;;21.56;40.47;101715.44;5010943;28;20038;-68
2023/05/21 01:28:41;;;;;;;71.60;68.20;;;;;;;21.52;40.56;101708.88;5026874;28;20120;-68
2023/05/21 01:31:20;;;;;;;71.45;67.95;;;;;;;21.50;40.25;101709.19;5011884;28;20117;-69
2023/05/21 01:33:52;;;;;;;70.47;67.10;;;;;;;21.47;40.27;101709.78;4999631;28;20034;-68
2023/05/21 01:36:25;;;;;;;71.90;68.40;;;;;;;21.44;40.67;101710.34;4997218;28;20157;-68
2023/05/21 01:39:06;;;;;;;70.07;66.68;;;;;;;21.42;40.73;101709.00;4992503;28;20489;-70
2023/05/21 01:41:35;;;;;;;71.35;67.55;;;;;;;21.38;40.57;101700.50;5006822;28;20113;-67
2023/05/21 01:44:04;;;;;;;70.53;67.22;;;;;;;21.36;40.84;101698.03;5001760;28;20076;-67
2023/05/21 01:46:34;;;;;;;70.80;67.32;;;;;;;21.33;40.95;101700.56;4991823;28;20249;-67
2023/05/21 01:49:00;;;;;;;69.95;66.65;;;;;;;21.31;41.09;101698.09;5000670;28;20042;-69
2023/05/21 01:51:26;;;;;;;73.78;70.28;;;;;;;21.29;40.86;101696.75;5018135;28;20035;-70
2023/05/21 01:53:52;;;;;;;70.18;66.57;;;;;;;21.26;41.01;101689.91;5010633;28;20045;-69
2023/05/21 01:56:17;;;;;;;69.43;66.13;;;;;;;21.24;40.93;101694.88;4991618;28;20038;-69
2023/05/21 01:58:43;;;;;;;68.60;65.40;;;;;;;21.21;40.76;101695.47;4992323;28;20049;-67
2023/05/21 02:01:08;;;;;;;69.47;65.95;;;;;;;21.19;40.84;101689.44;5012002;28;20034;-67
2023/05/21 02:03:34;;;;;;;70.20;66.80;;;;;;;21.16;40.93;101692.78;5005394;28;20045;-67
2023/05/21 02:05:59;;;;;;;71.30;67.85;;;;;;;21.13;40.78;101691.44;4995677;28;20475;-68
2023/05/21 02:08:26;;;;;;;70.82;67.40;;;;;;;21.10;40.83;101692.03;5006945;28;20042;-69
2023/05/21 02:10:51;;;;;;;68.40;65.10;;;;;;;21.09;40.89;101697.78;5001205;28;20466;-69
2023/05/21 02:13:19;;;;;;;70.57;67.18;;;;;;;21.06;41.00;101688.19;5035928;28;20053;-68
2023/05/21 02:15:45;;;;;;;69.20;65.80;;;;;;;21.04;40.92;101689.59;5025210;28;20053;-68
2023/05/21 02:18:15;;;;;;;69.13;65.63;;;;;;;21.01;41.31;101696.50;5001004;28;20073;-67
2023/05/21 02:20:40;;;;;;;67.88;64.70;;;;;;;20.98;41.26;101697.09;4995896;28;20046;-68
2023/05/21 02:23:06;;;;;;;67.78;64.28;;;;;;;20.96;41.02;101699.28;4995350;28;20034;-68
2023/05/21 02:25:31;;;;;;;71.07;67.38;;;;;;;20.93;41.10;101695.19;5009789;28;20044;-68
2023/05/21 02:27:57;;;;;;;67.97;64.38;;;;;;;20.92;41.32;101698.25;5028818;28;20088;-67
2023/05/21 02:30:22;;;;;;;67.72;64.38;;;;;;;20.89;41.20;101698.81;5003350;28;20030;-67
2023/05/21 02:32:48;;;;;;;69.32;65.85;;;;;;;20.86;41.58;101691.97;4994157;28;20463;-69
2023/05/21 02:35:14;;;;;;;67.75;64.53;;;;;;;20.85;41.44;101695.03;4995529;28;20039;-67
2023/05/21 02:37:39;;;;;;;67.22;63.92;;;;;;;20.82;41.63;101690.13;5007922;28;20034;-70
2023/05/21 02:40:06;;;;;;;68.60;65.25;;;;;;;20.79;41.44;101694.25;4997827;28;20034;-70
2023/05/21 02:42:32;;;;;;;68.53;65.22;;;;;;;20.77;41.39;101688.22;4995258;28;20030;-69
2023/05/21 02:44:57;;;;;;;67.03;63.75;;;;;;;20.75;41.37;101687.69;5003660;28;20065;-69
2023/05/21 02:47:24;;;;;;;66.97;63.55;;;;;;;20.72;41.66;101689.09;4994695;28;20034;-69
2023/05/21 02:49:51;;;;;;;65.93;62.83;;;;;;;20.70;41.26;101685.81;4999119;28;20124;-69
2023/05/21 02:52:17;;;;;;;65.35;61.95;;;;;;;20.68;41.89;101682.53;4994996;28;20335;-71
2023/05/21 02:54:43;;;;;;;67.38;64.15;;;;;;;20.65;41.65;101683.09;5009638;28;20112;-69
2023/05/21 02:57:09;;;;;;;65.70;62.40;;;;;;;20.63;41.75;101679.00;5020738;28;20364;-69
2023/05/21 02:59:34;;;;;;;68.00;64.32;;;;;;;20.61;41.57;101679.28;5005788;28;20037;-69
2023/05/21 03:02:00;;;;;;;65.80;62.60;;;;;;;20.59;42.10;101675.19;4999556;28;20569;-69
2023/05/21 03:04:27;;;;;;;66.97;63.63;;;;;;;20.57;41.48;101674.69;5012855;28;20045;-70
2023/05/21 03:06:53;;;;;;;67.07;63.70;;;;;;;20.55;41.60;101685.13;4994769;28;20027;-70
2023/05/21 03:09:22;;;;;;;66.00;62.70;;;;;;;20.50;41.90;101673.03;5009299;28;20055;-75
2023/05/21 03:11:49;;;;;;;67.47;63.92;;;;;;;20.49;41.77;101674.16;5009288;28;20050;-69
2023/05/21 03:14:15;;;;;;;64.35;61.15;;;;;;;20.47;42.12;101668.13;4994426;28;20110;-69
2023/05/21 03:16:42;;;;;;;67.63;64.13;;;;;;;20.44;41.68;101665.16;5013993;28;20069;-70
2023/05/21 03:19:08;;;;;;;60.97;58.17;;;;;;;20.41;42.00;101672.03;5013792;28;20099;-69
2023/05/21 03:21:33;;;;;;;65.18;61.97;;;;;;;20.39;41.69;101666.00;4994900;28;20573;-69
2023/05/21 03:23:59;;;;;;;68.28;64.88;;;;;;;20.37;42.22;101665.47;5003735;28;20125;-69
2023/05/21 03:26:28;;;;;;;67.10;63.78;;;;;;;20.35;42.23;101662.19;4977023;28;20034;-69
2023/05/21 03:28:55;;;;;;;65.28;61.88;;;;;;;20.32;42.40;101660.84;5014917;28;20550;-69
2023/05/21 03:31:20;;;;;;;65.10;61.67;;;;;;;20.30;42.20;101663.03;5022463;28;20083;-70
2023/05/21 03:33:46;;;;;;;64.68;61.55;;;;;;;20.28;42.03;101665.25;5010712;28;20471;-70
2023/05/21 03:36:11;;;;;;;65.75;61.72;;;;;;;20.26;42.05;101667.47;4993036;28;20042;-70
2023/05/21 03:38:37;;;;;;;67.97;64.15;;;;;;;20.24;42.47;101663.38;5011563;28;20033;-69
2023/05/21 03:41:02;;;;;;;65.68;62.47;;;;;;;20.21;42.43;101664.78;5000758;28;20038;-69
2023/05/21 03:43:28;;;;;;;67.85;64.38;;;;;;;20.21;41.97;101673.00;4993965;28;20043;-69
2023/05/21 03:45:53;;;;;;;65.95;62.72;;;;;;;20.18;42.39;101665.31;4994417;28;20045;-69
2023/05/21 03:48:19;;;;;;;66.97;63.58;;;;;;;20.15;42.28;101663.16;5000912;28;20425;-69
2023/05/21 03:50:44;;;;;;;64.68;61.50;;;;;;;20.14;42.33;101668.94;5005219;28;20042;-69
2023/05/21 03:53:10;;;;;;;63.03;59.83;;;;;;;20.11;42.50;101670.31;5000374;28;20419;-69
2023/05/21 03:55:35;;;;;;;66.47;62.97;;;;;;;20.08;42.23;101663.50;4998755;28;20037;-69
2023/05/21 03:58:01;;;;;;;65.30;62.22;;;;;;;20.07;42.23;101664.56;5001305;28;20117;-69
2023/05/21 04:00:26;;;;;;;64.57;61.42;;;;;;;20.05;42.32;101665.97;4993582;28;20076;-69
2023/05/21 04:02:51;;;;;;;62.90;59.70;;;;;;;20.03;42.53;101660.78;5006551;28;20038;-68
2023/05/21 04:05:17;;;;;;;66.20;62.75;;;;;;;20.01;42.79;101671.19;5007100;28;20042;-70
2023/05/21 04:07:45;;;;;;;68.47;65.07;;;;;;;20.00;42.83;101668.72;5013491;28;20077;-68
2023/05/21 04:10:10;;;;;;;63.67;60.53;;;;;;;19.98;42.57;101670.94;4993848;28;20118;-69
2023/05/21 04:12:36;;;;;;;64.38;61.28;;;;;;;19.95;42.78;101666.03;4992917;28;20150;-68
2023/05/21 04:15:01;;;;;;;63.17;60.08;;;;;;;19.94;42.81;101661.66;5003209;28;20125;-71
2023/05/21 04:17:27;;;;;;;61.47;58.28;;;;;;;19.91;42.94;101663.03;5000600;28;20471;-70
2023/05/21 04:19:53;;;;;;;63.78;60.67;;;;;;;19.89;42.78;101666.06;4993549;28;20375;-69
2023/05/21 04:22:18;;;;;;;65.93;62.28;;;;;;;19.87;42.42;101665.50;5013217;28;20507;-69
2023/05/21 04:24:45;;;;;;;61.65;58.55;;;;;;;19.85;42.72;101654.00;4991586;28;20041;-68
2023/05/21 04:27:12;;;;;;;62.47;59.30;;;;;;;19.84;42.96;101659.78;4993193;28;20027;-68
2023/05/21 04:29:41;;;;;;;63.35;60.15;;;;;;;19.81;42.79;101666.66;4999510;28;20042;-68
2023/05/21 04:32:06;;;;;;;;;;;;;;;19.80;42.88;101672.41;5000333;28;20040;-68
2023/05/21 04:34:32;;;;;;;62.25;59.05;;;;;;;19.76;42.94;101666.69;5023996;28;19912;-67
2023/05/21 04:36:59;;;;;;;61.33;58.33;;;;;;;19.75;42.90;101665.03;4993253;28;20030;-69
2023/05/21 04:39:24;;;;;;;62.50;59.38;;;;;;;19.73;43.29;101658.19;4993029;28;20054;-69
2023/05/21 04:41:53;;;;;;;62.30;59.05;;;;;;;19.71;42.79;101669.44;5015878;28;20041;-68
2023/05/21 04:44:19;;;;;;;61.50;58.33;;;;;;;19.70;43.41;101665.06;5014151;28;20125;-72
2023/05/21 04:46:44;;;;;;;62.78;59.60;;;;;;;19.68;43.20;101664.53;5016964;28;20116;-68
2023/05/21 04:49:10;;;;;;;62.50;59.45;;;;;;;19.67;42.88;101668.38;5012805;28;20038;-68
2023/05/21 04:51:36;;;;;;;63.38;60.28;;;;;;;19.65;43.31;101663.16;5028588;28;20032;-69
2023/05/21 04:54:02;;;;;;;61.97;58.75;;;;;;;19.63;43.23;101662.59;5007957;28;20073;-68
2023/05/21 04:56:28;;;;;;;61.63;58.53;;;;;;;19.62;43.38;101662.88;4992796;28;20080;-67
2023/05/21 04:58:53;;;;;;;61.47;58.40;;;;;;;19.60;43.24;101663.16;4992378;28;20038;-68
2023/05/21 05:01:24;;;;;;;62.70;59.50;;;;;;;19.58;43.26;101657.16;5017812;28;20054;-67
2023/05/21 05:03:50;;;;;;;61.05;57.85;;;;;;;19.56;43.50;101664.81;4998880;28;20037;-68
2023/05/21 05:06:16;;;;;;;60.70;57.53;;;;;;;19.55;43.28;101665.91;5010918;28;20041;-67
2023/05/21 05:08:41;;;;;;;62.13;58.75;;;;;;;19.52;43.39;101663.72;5022294;28;20052;-67
2023/05/21 05:11:07;;;;;;;60.20;57.30;;;;;;;19.52;43.68;101671.94;5000211;28;20034;-68
2023/05/21 05:13:33;;;;;;;62.63;59.63;;;;;;;19.50;43.61;101665.13;5010010;28;20050;-69
2023/05/21 05:15:59;;;;;;;60.22;57.22;;;;;;;19.49;43.78;101666.22;4992367;28;20486;-69
2023/05/21 05:18:25;;;;;;;59.30;56.42;;;;;;;19.46;43.42;101667.59;5028555;28;20033;-69
2023/05/21 05:20:50;;;;;;;63.33;59.97;;;;;;;19.45;43.64;101669.53;4996731;28;20065;-69
2023/05/21 05:23:16;;;;;;;60.72;57.22;;;;;;;19.44;43.75;101661.59;4992133;28;20035;-69
2023/05/21 05:25:41;;;;;;;61.22;58.15;;;;;;;19.42;43.48;101670.06;5006950;28;20033;-70
2023/05/21 05:28:07;;;;;;;59.97;57.05;;;;;;;19.41;43.73;101671.19;5018253;28;20042;-67
2023/05/21 05:30:32;;;;;;;63.53;59.60;;;;;;;19.41;43.55;101675.84;5009756;28;20053;-69
2023/05/21 05:32:58;;;;;;;60.97;57.88;;;;;;;19.38;43.42;101671.75;5003480;28;20049;-70
2023/05/21 05:35:23;;;;;;;61.28;57.13;;;;;;;19.37;43.87;101670.09;5006465;28;20037;-70
2023/05/21 05:37:48;;;;;;;62.03;58.72;;;;;;;19.35;44.10;101672.31;5009786;28;20092;-68
2023/05/21 05:40:14;;;;;;;60.70;57.20;;;;;;;19.34;44.01;101676.13;5012379;28;20041;-68
2023/05/21 05:42:39;;;;;;;61.33;58.00;;;;;;;19.33;44.12;101671.75;5010911;28;20034;-69
2023/05/21 05:45:05;;;;;;;61.13;58.03;;;;;;;19.32;43.88;101672.84;5006749;28;20034;-68
2023/05/21 05:47:31;;;;;;;58.80;55.80;;;;;;;19.31;44.10;101675.88;4990842;28;20031;-68
2023/05/21 05:49:56;;;;;;;61.47;58.22;;;;;;;19.30;44.01;101675.03;4998660;28;20061;-70
2023/05/21 05:52:22;;;;;;;60.33;57.05;;;;;;;19.30;43.85;101674.22;5017445;28;20433;-69
2023/05/21 05:54:47;;;;;;;61.40;57.65;;;;;;;19.28;44.06;101676.41;5009993;28;20506;-70
2023/05/21 05:57:13;;;;;;;60.75;57.45;;;;;;;19.27;43.81;101675.59;5011061;28;20038;-68
2023/05/21 05:59:38;;;;;;;60.13;56.95;;;;;;;19.26;44.37;101670.41;5010062;28;20030;-70
2023/05/21 06:02:04;;;;;;;60.00;56.72;;;;;;;19.26;44.13;101678.63;5030168;28;20127;-68
2023/05/21 06:04:29;;;;;;;58.40;55.50;;;;;;;19.24;44.31;101671.50;5004255;28;20033;-69
2023/05/21 06:06:59;;;;;;;60.78;57.65;;;;;;;19.23;44.24;101666.31;5011084;28;20393;-68
2023/05/21 06:09:24;;;;;;;60.67;57.58;;;;;;;19.21;44.50;101669.31;5010348;28;20038;-68
2023/05/21 06:11:49;;;;;;;61.65;58.08;;;;;;;19.21;44.13;101657.56;5009147;28;20502;-69
2023/05/21 06:14:15;;;;;;;59.50;56.38;;;;;;;19.20;44.49;101675.06;4992175;28;20034;-70
2023/05/21 06:16:40;;;;;;;59.67;56.20;;;;;;;19.19;44.56;101676.19;4990470;28;20169;-70
2023/05/21 06:19:06;;;;;;;60.38;56.55;;;;;;;19.17;44.57;101676.44;4992129;28;20041;-68
2023/05/21 06:21:31;;;;;;;59.67;56.55;;;;;;;19.18;44.50;101680.03;5022244;28;20077;-69
2023/05/21 06:23:57;;;;;;;61.67;58.40;;;;;;;19.16;44.74;101674.81;5005772;28;20454;-68
2023/05/21 06:26:22;;;;;;;62.00;58.92;;;;;;;19.15;44.72;101675.94;5009385;28;20053;-68
2023/05/21 06:28:48;;;;;;;58.30;55.30;;;;;;;19.15;44.87;101678.66;5009598;28;20034;-69
2023/05/21 06:31:14;;;;;;;59.08;55.97;;;;;;;19.15;44.52;101677.81;5010205;28;20040;-70
2023/05/21 06:33:40;;;;;;;57.70;54.72;;;;;;;19.14;44.93;101668.78;5010631;28;20034;-71
2023/05/21 06:36:06;;;;;;;60.00;56.65;;;;;;;19.13;44.92;101674.56;5010019;28;20034;-68
2023/05/21 06:38:31;;;;;;;57.53;54.22;;;;;;;19.12;44.82;101670.97;5018846;28;20042;-69
2023/05/21 06:40:57;;;;;;;60.33;57.13;;;;;;;19.12;44.76;101675.66;5009766;28;20456;-69
2023/05/21 06:43:23;;;;;;;59.22;56.33;;;;;;;19.11;44.69;101666.63;5021234;28;20038;-69
2023/05/21 06:45:48;;;;;;;59.53;56.50;;;;;;;19.10;44.59;101678.69;5010670;28;20033;-69
2023/05/21 06:48:15;;;;;;;58.25;54.95;;;;;;;19.10;44.66;101666.88;5013039;28;20030;-68
2023/05/21 06:50:42;;;;;;;56.83;53.65;;;;;;;19.08;44.57;101669.09;5016980;28;20042;-74
2023/05/21 06:53:09;;;;;;;55.95;52.90;;;;;;;19.08;44.82;101667.19;4994570;28;20824;-69
2023/05/21 06:55:35;;;;;;;59.33;56.33;;;;;;;19.09;44.83;101668.00;4999220;28;20080;-69
2023/05/21 06:58:00;;;;;;;57.88;54.78;;;;;;;19.08;44.64;101672.66;4997027;28;20038;-70
2023/05/21 07:00:26;;;;;;;59.97;56.83;;;;;;;19.06;44.71;101672.09;5000448;28;20021;-70
2023/05/21 07:02:51;;;;;;;57.97;54.75;;;;;;;19.07;45.16;101667.44;5020406;28;20033;-71
2023/05/21 07:05:17;;;;;;;56.08;52.95;;;;;;;19.06;45.16;101665.81;5008198;28;20065;-69
2023/05/21 07:07:42;;;;;;;57.95;54.90;;;;;;;19.05;44.81;101659.53;4996581;28;20468;-68
2023/05/21 07:10:08;;;;;;;57.70;54.83;;;;;;;19.05;44.73;101655.94;4996726;28;20034;-68
2023/05/21 07:12:34;;;;;;;57.90;54.83;;;;;;;19.05;45.21;101656.78;4994836;28;20797;-70
2023/05/21 07:14:59;;;;;;;58.97;55.72;;;;;;;19.04;44.99;101655.13;5024918;28;20034;-67
2023/05/21 07:17:24;;;;;;;58.92;55.70;;;;;;;19.04;45.31;101652.38;5031486;28;20041;-71
2023/05/21 07:19:50;;;;;;;60.40;57.05;;;;;;;19.03;45.14;101654.31;5014897;28;20125;-69
2023/05/21 07:22:15;;;;;;;59.63;56.53;;;;;;;19.03;45.52;101651.56;5012165;28;20064;-69
2023/05/21 07:24:41;;;;;;;58.40;55.40;;;;;;;19.03;45.60;101648.84;5013599;28;20045;-68
2023/05/21 07:27:06;;;;;;;60.88;57.53;;;;;;;19.05;45.61;101653.19;5018677;28;20049;-68
2023/05/21 07:29:32;;;;;;;58.55;54.88;;;;;;;19.05;45.37;101647.72;5017942;28;20493;-69
2023/05/21 07:31:58;;;;;;;58.50;55.50;;;;;;;19.05;45.62;101653.19;5006698;28;20493;-68
2023/05/21 07:34:23;;;;;;;59.45;56.40;;;;;;;19.05;45.66;101651.31;5009078;28;20061;-68
2023/05/21 07:36:49;;;;;;;58.65;55.45;;;;;;;19.06;45.54;101652.13;4992788;28;20038;-68
2023/05/21 07:39:14;;;;;;;59.63;56.53;;;;;;;19.06;45.73;101652.13;5010497;28;20048;-69
2023/05/21 07:41:39;;;;;;;59.10;56.00;;;;;;;19.07;45.27;101651.81;5020900;28;20056;-69
2023/05/21 07:44:05;;;;;;;58.40;55.40;;;;;;;19.09;45.59;101654.31;5015853;28;20049;-69
2023/05/21 07:46:30;;;;;;;57.03;54.03;;;;;;;19.10;45.54;101653.19;5013416;28;20034;-68
2023/05/21 07:48:56;;;;;;;59.58;56.45;;;;;;;19.11;45.74;101643.91;5027885;28;20120;-67
2023/05/21 07:51:22;;;;;;;60.70;57.20;;;;;;;19.12;45.71;101645.53;5021862;28;20113;-70
2023/05/21 07:53:47;;;;;;;57.80;54.80;;;;;;;19.13;45.51;101648.00;5021002;28;20058;-70
2023/05/21 07:56:12;;;;;;;60.40;57.08;;;;;;;19.15;45.71;101655.91;4993058;28;20134;-70
2023/05/21 07:58:39;;;;;;;58.83;55.65;;;;;;;19.16;46.12;101661.13;4993645;28;20041;-69
2023/05/21 08:01:05;;;;;;;61.13;57.92;;;;;;;19.18;45.80;101660.84;5031502;28;20489;-70
2023/05/21 08:03:30;;;;;;;63.40;59.80;;;;;;;19.19;45.91;101663.31;5006052;28;20049;-70
2023/05/21 08:05:56;;;;;;;61.70;58.13;;;;;;;19.23;45.96;101671.81;4993425;28;20027;-70
2023/05/21 08:08:22;;;;;;;59.65;56.65;;;;;;;19.24;45.79;101657.81;5007441;28;20049;-70
2023/05/21 08:10:48;;;;;;;59.83;56.72;;;;;;;19.26;45.94;101654.81;5006503;28;20041;-68
2023/05/21 08:13:16;;;;;;;58.35;55.42;;;;;;;19.28;46.32;101649.88;5002952;28;20046;-69
2023/05/21 08:15:42;;;;;;;59.28;55.78;;;;;;;19.31;45.84;101646.56;4997829;28;20034;-68
2023/05/21 08:18:07;;;;;;;59.83;56.63;;;;;;;19.34;46.21;101642.44;5013866;28;20041;-70
2023/05/21 08:20:33;;;;;;;59.75;56.28;;;;;;;19.37;46.30;101645.44;5015274;28;20033;-69
2023/05/21 08:22:59;;;;;;;62.53;59.25;;;;;;;19.40;46.32;101647.63;4991272;28;20038;-70
2023/05/21 08:25:25;;;;;;;61.78;58.38;;;;;;;19.43;46.63;101646.25;4994685;28;20109;-69
2023/05/21 08:27:50;;;;;;;62.42;58.42;;;;;;;19.46;46.62;101634.72;5027838;28;20033;-68
2023/05/21 08:30:16;;;;;;;59.55;56.40;;;;;;;19.49;46.19;101644.31;5001149;28;20467;-70
2023/05/21 08:32:41;;;;;;;59.55;56.55;;;;;;;19.51;46.05;101636.63;4991694;28;20038;-69
2023/05/21 08:35:07;;;;;;;67.00;63.30;;;;;;;19.55;46.51;101633.03;4998814;28;20042;-68
2023/05/21 08:37:33;;;;;;;64.57;60.97;;;;;;;19.58;46.53;101628.91;5008160;28;20068;-70
2023/05/21 08:39:58;;;;;;;59.25;56.13;;;;;;;19.62;46.79;101627.25;4992400;28;20391;-69
2023/05/21 08:42:39;;;;;;;62.90;59.17;;;;;;;19.66;46.49;101615.44;5006614;28;20042;-69
2023/05/21 08:45:05;;;;;;;66.07;62.00;;;;;;;19.70;46.76;101623.94;4998511;28;20030;-69
2023/05/21 08:47:34;;;;;;;60.65;57.38;;;;;;;19.75;46.44;101625.84;4995805;28;20038;-69
2023/05/21 08:50:03;;;;;;;62.08;58.90;;;;;;;19.79;47.03;101627.72;4991956;28;20505;-68
2023/05/21 08:52:30;;;;;;;68.45;64.80;;;;;;;19.83;46.45;101617.84;5005293;28;20040;-70
2023/05/21 08:54:55;;;;;;;65.63;62.00;;;;;;;19.88;46.84;101619.72;5000008;28;20081;-69
2023/05/21 08:57:24;;;;;;;65.55;61.90;;;;;;;19.94;47.12;101617.78;4993791;28;20076;-69
2023/05/21 08:59:49;;;;;;;62.58;59.05;;;;;;;19.98;47.03;101619.69;4990962;28;20068;-70
2023/05/21 09:02:17;;;;;;;64.88;61.38;;;;;;;20.04;46.79;101625.94;4994995;28;20029;-68
2023/05/21 09:04:48;;;;;;;65.72;62.10;;;;;;;20.09;46.71;101625.91;4996414;28;20038;-68
2023/05/21 09:07:14;;;;;;;66.53;62.92;;;;;;;20.15;47.20;101629.41;5006270;28;20050;-68
2023/05/21 09:10:10;;;;;;;66.18;62.58;;;;;;;20.22;47.06;101632.66;4992546;28;20117;-67
2023/05/21 09:12:37;;;;;;;64.78;61.25;;;;;;;20.26;47.25;101631.81;5011742;28;20185;-69
2023/05/21 09:15:03;;;;;;;69.43;65.45;;;;;;;20.32;47.31;101630.66;4973659;28;20477;-70
2023/05/21 09:17:28;;;;;;;68.35;64.32;;;;;;;20.37;47.06;101635.28;5000694;28;20029;-69
2023/05/21 09:20:14;;;;;;;67.20;63.55;;;;;;;20.43;47.15;101628.63;5007053;28;20038;-70
2023/05/21 09:22:42;;;;;;;63.70;60.60;;;;;;;20.47;47.22;101626.97;4997707;28;20037;-71
2023/05/21 09:25:12;;;;;;;67.60;63.70;;;;;;;20.52;47.62;101624.16;4991044;28;20038;-67
2023/05/21 09:27:38;;;;;;;67.25;63.75;;;;;;;20.55;47.18;101617.31;4991260;28;20030;-68
2023/05/21 09:30:09;;;;;;;70.13;66.25;;;;;;;20.61;47.35;101616.16;5001109;28;20030;-68
2023/05/21 09:32:35;;;;;;;69.95;65.82;;;;;;;20.67;47.12;101626.00;5007828;28;20060;-71
2023/05/21 09:35:08;;;;;;;69.93;65.95;;;;;;;20.76;47.35;101615.19;4991912;28;20038;-71
2023/05/21 09:37:42;;;;;;;66.97;63.65;;;;;;;20.81;47.28;101614.31;5002087;28;20030;-69
2023/05/21 09:40:18;;;;;;;72.38;68.18;;;;;;;20.86;47.33;101612.31;5012517;28;20046;-68
2023/05/21 09:42:48;;;;;;;70.30;66.72;;;;;;;20.94;47.34;101617.22;4999751;28;20540;-67
2023/05/21 09:45:32;;;;;;;72.68;68.85;;;;;;;21.02;47.68;101617.69;4994649;28;20046;-67
2023/05/21 09:47:58;;;;;;;68.25;64.75;;;;;;;21.07;47.18;101610.19;5019440;28;20045;-67
2023/05/21 09:50:27;;;;;;;71.43;67.35;;;;;;;21.13;47.15;101600.78;4991522;28;20038;-68
2023/05/21 09:52:54;;;;;;;70.43;66.50;;;;;;;21.20;47.03;101607.84;4991471;28;20638;-69
2023/05/21 09:55:25;;;;;;;73.70;69.47;;;;;;;21.27;47.25;101602.78;5005010;28;20034;-67
2023/05/21 09:57:51;;;;;;;71.95;68.10;;;;;;;21.34;47.01;101598.59;5019255;28;20091;-69
2023/05/21 10:00:18;;;;;;;74.18;70.00;;;;;;;21.41;47.19;101590.00;5015268;28;20092;-67
2023/05/21 10:02:46;;;;;;;71.47;67.93;;;;;;;21.48;46.88;101593.22;5004650;28;20042;-69
2023/05/21 10:05:13;;;;;;;72.15;68.50;;;;;;;21.56;47.41;101591.75;5000028;28;20034;-67
2023/05/21 10:07:41;;;;;;;72.75;68.90;;;;;;;21.65;47.33;101602.91;5001322;28;20036;-70
2023/05/21 10:10:12;;;;;;;77.68;72.93;;;;;;;21.72;47.09;101589.59;4999643;28;20035;-68
2023/05/21 10:12:43;;;;;;;77.15;72.97;;;;;;;21.79;46.85;101596.34;4994347;28;20051;-67
2023/05/21 10:15:13;;;;;;;79.88;75.53;;;;;;;21.88;46.72;101581.94;4994330;28;20025;-68
2023/05/21 10:17:39;;;;;;;77.85;73.65;;;;;;;21.96;46.87;101576.56;4996317;28;20035;-69
2023/05/21 10:20:07;;;;;;;74.03;70.15;;;;;;;22.04;46.89;101577.81;5015605;28;20049;-69
2023/05/21 10:22:34;;;;;;;74.30;70.60;;;;;;;22.12;47.07;101582.63;5014926;28;20136;-68
2023/05/21 10:25:02;;;;;;;76.68;72.68;;;;;;;22.21;46.77;101578.13;5016634;28;20038;-69
2023/05/21 10:27:29;;;;;;;78.65;73.95;;;;;;;22.29;47.07;101575.78;5008357;28;20041;-69
2023/05/21 10:29:56;;;;;;;76.68;72.72;;;;;;;22.36;46.75;101566.03;5014875;28;20093;-67
2023/05/21 10:32:22;;;;;;;79.72;75.50;;;;;;;22.44;46.53;101572.78;5013904;28;20470;-71
2023/05/21 10:34:48;;;;;;;79.57;75.30;;;;;;;22.53;46.51;101567.38;5004196;28;20027;-68
2023/05/21 10:37:15;;;;;;;82.25;78.15;;;;;;;22.60;46.69;101565.88;4994820;28;20030;-68
2023/05/21 10:39:44;;;;;;;81.03;76.63;;;;;;;22.68;46.90;101565.16;5006884;28;20034;-68
2023/05/21 10:42:28;;;;;;;83.45;79.05;;;;;;;22.76;46.74;101566.41;5022979;28;20037;-68
2023/05/21 10:45:02;;;;;;;81.05;76.90;;;;;;;22.85;46.36;101569.25;5005339;28;20046;-69
2023/05/21 10:48:05;;;;;;;82.20;77.80;;;;;;;22.95;46.55;101570.97;4994779;28;20050;-68
2023/05/21 10:50:39;;;;;;;84.50;80.22;;;;;;;23.02;46.57;101563.16;4994878;28;20026;-71
2023/05/21 10:53:23;;;;;;;82.55;78.53;;;;;;;23.10;46.36;101559.69;5013132;28;20126;-70
2023/05/21 10:56:14;;;;;;;86.80;82.20;;;;;;;23.19;45.98;101552.31;5009669;28;20033;-68
2023/05/21 10:58:45;;;;;;;88.85;84.10;;;;;;;23.26;45.94;101549.97;5000321;28;20033;-69
2023/05/21 11:01:11;;;;;;;87.38;83.00;;;;;;;23.35;46.39;101552.81;5018527;28;20107;-68
2023/05/21 11:03:37;;;;;;;88.43;83.57;;;;;;;23.42;46.37;101544.13;5014793;28;20477;-68
2023/05/21 11:06:05;;;;;;;87.35;82.65;;;;;;;23.50;46.30;101552.47;5018439;28;20133;-68
2023/05/21 11:08:33;;;;;;;88.00;83.30;;;;;;;23.59;45.87;101554.50;4992802;28;20041;-69